Time;durP1;ratioP1;P1;durP2;ratioP2;P2;SDS_P1;SDS_P2;PMS_P1;PMS_P2;Temp;Humidity;BMP_temperature;BMP_pressure;BME280_temperature;BME280_humidity;BME280_pressure;Samples;Min_cycle;Max_cycle;Signal;HPM_P1;HPM_P2
2023/01/07 00:01:07;;;;;;;2.50;1.15;;;9.70;99.90;;;;;;5011821;28;20034;-75
2023/01/07 00:03:33;;;;;;;2.47;1.40;;;9.70;99.90;;;;;;5011052;28;20030;-75
2023/01/07 00:06:33;;;;;;;2.90;0.88;;;9.80;99.90;;;;;;5011644;28;20413;-75
2023/01/07 00:09:00;;;;;;;3.53;1.48;;;9.80;99.90;;;;;;5006993;28;20064;-75
2023/01/07 00:11:28;;;;;;;2.78;1.10;;;9.70;99.90;;;;;;5011782;28;20025;-75
2023/01/07 00:13:56;;;;;;;2.15;1.27;;;9.70;99.90;;;;;;4988302;28;20128;-75
2023/01/07 00:16:26;;;;;;;0.88;0.63;;;9.80;99.90;;;;;;5012420;28;20063;-75
2023/01/07 00:18:54;;;;;;;2.08;0.85;;;9.70;99.90;;;;;;5010563;28;20037;-75
2023/01/07 00:21:22;;;;;;;2.25;0.75;;;9.70;99.90;;;;;;5011475;28;20034;-75
2023/01/07 00:23:48;;;;;;;1.42;0.80;;;9.70;99.90;;;;;;5009609;28;20037;-75
2023/01/07 00:26:18;;;;;;;2.42;1.02;;;9.70;99.90;;;;;;5011362;28;20034;-75
2023/01/07 00:28:48;;;;;;;2.47;1.00;;;9.70;99.90;;;;;;5011041;28;20051;-75
2023/01/07 00:31:24;;;;;;;2.30;1.35;;;9.60;99.90;;;;;;5011509;28;20034;-75
2023/01/07 00:36:22;;;;;;;6.80;1.20;;;9.70;99.90;;;;;;5011124;28;20040;-75
2023/01/07 00:39:09;;;;;;;1.98;0.90;;;9.70;99.90;;;;;;5010238;28;20432;-75
2023/01/07 00:41:35;;;;;;;1.23;0.70;;;9.70;99.90;;;;;;5012199;28;20029;-74
2023/01/07 00:44:02;;;;;;;3.67;1.38;;;9.70;99.90;;;;;;5011455;28;20105;-75
2023/01/07 00:46:28;;;;;;;1.73;0.88;;;9.70;99.90;;;;;;5010771;28;20026;-75
2023/01/07 00:48:54;;;;;;;2.03;0.80;;;9.70;99.90;;;;;;5011134;28;20041;-75
2023/01/07 00:51:20;;;;;;;1.95;0.90;;;9.70;99.90;;;;;;5012222;28;20030;-75
2023/01/07 00:53:46;;;;;;;1.35;0.73;;;9.70;99.90;;;;;;5011036;28;20497;-75
2023/01/07 00:56:13;;;;;;;3.72;1.40;;;9.70;99.90;;;;;;5010648;28;20529;-74
2023/01/07 00:58:40;;;;;;;1.80;0.95;;;9.80;99.90;;;;;;5010928;28;20449;-75
2023/01/07 01:01:06;;;;;;;1.65;0.98;;;9.70;99.90;;;;;;5010700;28;20385;-75
2023/01/07 01:03:32;;;;;;;3.10;1.08;;;9.80;99.90;;;;;;5009666;28;20041;-74
2023/01/07 01:06:07;;;;;;;1.05;0.75;;;9.80;99.90;;;;;;5010571;28;20096;-74
2023/01/07 01:08:32;;;;;;;1.63;1.02;;;9.80;99.90;;;;;;5011226;28;20048;-75
2023/01/07 01:11:07;;;;;;;3.28;1.45;;;9.80;99.90;;;;;;4993202;28;20034;-74
2023/01/07 01:13:33;;;;;;;0.82;0.75;;;9.90;99.90;;;;;;5007325;28;20041;-74
2023/01/07 01:16:00;;;;;;;1.52;1.02;;;9.80;99.90;;;;;;5011521;28;20030;-74
2023/01/07 01:18:26;;;;;;;1.05;0.80;;;9.80;99.90;;;;;;5009050;28;20038;-74
2023/01/07 01:20:52;;;;;;;3.08;1.60;;;9.80;99.90;;;;;;5011630;28;20072;-74
2023/01/07 01:23:17;;;;;;;2.10;0.68;;;9.80;99.90;;;;;;5025832;23;20054;-79
2023/01/07 01:25:43;;;;;;;4.90;0.98;;;9.80;99.90;;;;;;5010219;28;20056;-78
2023/01/07 01:28:08;;;;;;;1.80;1.20;;;9.70;99.90;;;;;;5025319;28;20136;-79
2023/01/07 01:30:34;;;;;;;1.65;0.88;;;9.80;99.90;;;;;;5011265;28;20172;-78
2023/01/07 01:33:00;;;;;;;2.17;1.20;;;9.80;99.90;;;;;;5003659;28;20040;-78
2023/01/07 01:35:26;;;;;;;1.45;0.90;;;9.80;99.90;;;;;;5006682;28;20034;-79
2023/01/07 01:37:52;;;;;;;2.13;1.08;;;9.70;99.90;;;;;;4990790;28;20665;-78
2023/01/07 01:40:18;;;;;;;1.92;0.93;;;9.80;99.90;;;;;;4991541;28;20101;-79
2023/01/07 01:42:44;;;;;;;1.48;0.93;;;9.80;99.90;;;;;;4991435;28;20033;-79
2023/01/07 01:45:11;;;;;;;1.95;1.60;;;9.80;99.90;;;;;;4991424;28;20041;-79
2023/01/07 01:47:52;;;;;;;1.65;0.68;;;9.80;99.90;;;;;;5006047;28;20165;-79
2023/01/07 01:50:43;;;;;;;2.97;1.75;;;9.90;99.90;;;;;;4982435;28;20149;-79
2023/01/07 01:53:22;;;;;;;0.88;0.70;;;9.90;99.90;;;;;;4991257;28;20066;-78
2023/01/07 01:56:13;;;;;;;2.53;1.23;;;9.90;99.90;;;;;;5006375;28;20127;-79
2023/01/07 01:58:46;;;;;;;1.80;1.00;;;9.90;99.90;;;;;;5003876;28;20505;-78
2023/01/07 02:01:12;;;;;;;1.95;1.00;;;9.90;99.90;;;;;;5006025;28;20084;-79
2023/01/07 02:03:38;;;;;;;3.00;0.98;;;9.80;99.90;;;;;;4990532;28;20041;-79
2023/01/07 02:06:08;;;;;;;1.35;0.90;;;9.80;99.90;;;;;;5000831;28;20041;-79
2023/01/07 02:08:34;;;;;;;1.45;0.80;;;9.80;99.90;;;;;;4989989;28;20026;-79
2023/01/07 02:11:23;;;;;;;3.53;0.90;;;9.80;99.90;;;;;;4991544;28;20088;-79
2023/01/07 02:13:55;;;;;;;11.40;1.38;;;9.70;99.90;;;;;;5005505;28;20038;-79
2023/01/07 02:16:45;;;;;;;3.80;1.02;;;9.70;99.90;;;;;;4982311;28;20080;-78
2023/01/07 02:19:54;;;;;;;1.77;1.00;;;9.70;99.90;;;;;;5005917;28;20034;-79
2023/01/07 02:22:33;;;;;;;1.10;0.68;;;9.70;99.90;;;;;;4952313;28;20372;-78
2023/01/07 02:25:42;;;;;;;0.85;0.70;;;9.70;99.90;;;;;;4970888;28;20491;-78
2023/01/07 02:28:35;;;;;;;1.75;1.10;;;9.70;99.90;;;;;;4921781;28;20083;-79
2023/01/07 02:31:47;;;;;;;1.65;0.85;;;9.70;99.90;;;;;;4973320;28;20561;-78
2023/01/07 02:34:51;;;;;;;2.45;1.15;;;9.70;99.90;;;;;;4972529;28;20046;-79
2023/01/07 02:37:55;;;;;;;0.90;0.45;;;9.70;99.90;;;;;;4972794;28;20557;-79
2023/01/07 02:40:28;;;;;;;4.38;1.45;;;9.60;99.90;;;;;;4965465;28;20081;-78
2023/01/07 02:43:24;;;;;;;1.05;0.75;;;9.70;99.90;;;;;;4956041;28;20911;-78
2023/01/07 02:46:33;;;;;;;5.00;1.17;;;9.70;99.90;;;;;;4972849;28;20046;-78
2023/01/07 02:49:08;;;;;;;1.60;0.88;;;9.70;99.90;;;;;;4972064;28;20543;-78
2023/01/07 02:51:38;;;;;;;2.15;0.85;;;9.70;99.90;;;;;;4972598;28;20035;-78
2023/01/07 02:54:22;;;;;;;2.60;1.00;;;9.70;99.90;;;;;;4990898;28;20038;-78
2023/01/07 02:57:24;;;;;;;1.52;0.75;;;9.70;99.90;;;;;;5009162;28;20502;-78
2023/01/07 03:00:35;;;;;;;1.13;0.80;;;9.70;99.90;;;;;;4991289;28;20034;-78
2023/01/07 03:03:50;;;;;;;1.20;0.73;;;9.70;99.90;;;;;;4989799;28;20430;-79
2023/01/07 03:06:57;;;;;;;2.88;0.85;;;9.70;99.90;;;;;;4986377;28;20495;-79
2023/01/07 03:10:04;;;;;;;2.60;0.88;;;9.70;99.90;;;;;;5007442;28;20023;-78
2023/01/07 03:12:48;;;;;;;2.15;0.82;;;9.70;99.90;;;;;;4990602;28;20519;-78
2023/01/07 03:15:32;;;;;;;1.48;0.80;;;9.60;99.90;;;;;;4994161;28;20073;-78
2023/01/07 03:18:07;;;;;;;0.85;0.50;;;9.60;99.90;;;;;;4987392;28;20032;-78
2023/01/07 03:20:37;;;;;;;4.07;0.88;;;9.60;99.90;;;;;;5008749;28;20038;-79
2023/01/07 03:23:08;;;;;;;0.90;0.52;;;9.60;99.90;;;;;;4993494;28;20030;-78
2023/01/07 03:25:38;;;;;;;;;;;9.60;99.90;;;;;;5009094;28;20026;-79
2023/01/07 03:28:06;;;;;;;1.17;0.80;;;9.60;99.90;;;;;;4993202;28;19917;-79
2023/01/07 03:30:32;;;;;;;2.83;0.70;;;9.60;99.90;;;;;;5008728;28;20109;-78
2023/01/07 03:33:15;;;;;;;1.38;0.75;;;9.60;99.90;;;;;;5005051;28;20122;-78
2023/01/07 03:35:44;;;;;;;0.63;0.45;;;9.60;99.90;;;;;;5008476;28;20393;-78
2023/01/07 03:38:11;;;;;;;1.98;1.27;;;9.60;99.90;;;;;;4988203;28;20038;-79
2023/01/07 03:40:37;;;;;;;0.85;0.60;;;9.60;99.90;;;;;;5008608;28;20113;-78
2023/01/07 03:43:03;;;;;;;2.25;1.00;;;9.50;99.90;;;;;;5008520;28;20137;-78
2023/01/07 03:45:29;;;;;;;1.17;0.60;;;9.50;99.90;;;;;;4993795;28;20110;-78
2023/01/07 03:47:56;;;;;;;0.35;0.32;;;9.50;99.90;;;;;;4992786;28;20042;-78
2023/01/07 03:50:22;;;;;;;1.30;0.60;;;9.50;99.90;;;;;;5008632;28;20403;-79
2023/01/07 03:52:49;;;;;;;1.25;0.73;;;9.60;99.90;;;;;;4993077;28;20030;-78
2023/01/07 03:55:16;;;;;;;2.20;0.90;;;9.60;99.90;;;;;;4992403;28;20026;-78
2023/01/07 03:57:41;;;;;;;2.17;0.93;;;9.60;99.90;;;;;;4992727;28;20042;-78
2023/01/07 04:00:11;;;;;;;1.73;0.73;;;9.60;99.90;;;;;;4993183;28;20436;-78
2023/01/07 04:02:37;;;;;;;2.70;1.17;;;9.60;99.90;;;;;;4989969;28;21007;-78
2023/01/07 04:05:03;;;;;;;3.20;1.25;;;9.60;99.90;;;;;;4992860;28;20045;-78
2023/01/07 04:07:29;;;;;;;2.10;1.00;;;9.60;99.90;;;;;;4992242;28;20065;-78
2023/01/07 04:09:55;;;;;;;0.75;0.52;;;9.60;99.90;;;;;;4992536;28;20085;-78
2023/01/07 04:12:20;;;;;;;1.73;0.70;;;9.50;99.90;;;;;;4992344;28;20038;-78
2023/01/07 04:14:46;;;;;;;3.47;0.82;;;9.60;99.90;;;;;;4992492;28;20550;-78
2023/01/07 04:17:12;;;;;;;2.10;0.70;;;9.60;99.90;;;;;;4991585;28;20061;-78
2023/01/07 04:19:38;;;;;;;1.52;0.95;;;9.60;99.90;;;;;;4984177;28;20034;-78
2023/01/07 04:22:06;;;;;;;1.27;0.90;;;9.60;99.90;;;;;;4991376;28;20026;-79
2023/01/07 04:24:32;;;;;;;1.35;0.65;;;9.50;99.90;;;;;;5007187;28;20034;-78
2023/01/07 04:26:58;;;;;;;2.70;0.88;;;9.60;99.90;;;;;;5007714;28;20026;-78
2023/01/07 04:29:24;;;;;;;1.77;1.08;;;9.60;99.90;;;;;;4991972;28;20034;-78
2023/01/07 04:31:49;;;;;;;2.58;1.00;;;9.60;99.90;;;;;;4993101;28;20026;-78
2023/01/07 04:34:15;;;;;;;0.77;0.60;;;9.50;99.90;;;;;;4992032;28;20034;-78
2023/01/07 04:36:40;;;;;;;1.50;1.20;;;9.60;99.90;;;;;;4992366;28;20482;-79
2023/01/07 04:39:06;;;;;;;4.05;0.98;;;9.50;99.90;;;;;;4991665;28;20034;-78
2023/01/07 04:41:32;;;;;;;1.88;1.10;;;9.50;99.90;;;;;;4992671;28;20030;-77
2023/01/07 04:43:58;;;;;;;0.70;0.57;;;9.50;99.90;;;;;;4991534;28;20027;-77
2023/01/07 04:46:24;;;;;;;2.60;1.10;;;9.50;99.90;;;;;;4992228;28;20088;-77
2023/01/07 04:48:50;;;;;;;2.13;1.42;;;9.50;99.90;;;;;;4991975;28;20457;-78
2023/01/07 04:51:16;;;;;;;1.63;1.02;;;9.50;99.90;;;;;;4983252;28;20434;-78
2023/01/07 04:53:41;;;;;;;2.53;1.00;;;9.50;99.90;;;;;;4991769;28;20049;-78
2023/01/07 04:56:07;;;;;;;1.23;0.60;;;9.50;99.90;;;;;;5007330;28;20453;-78
2023/01/07 04:58:33;;;;;;;2.08;0.90;;;9.50;99.90;;;;;;4991575;28;20101;-78
2023/01/07 05:01:02;;;;;;;3.17;0.90;;;9.50;99.90;;;;;;4991031;28;20038;-78
2023/01/07 05:03:29;;;;;;;1.20;0.70;;;9.50;99.90;;;;;;4986589;28;20371;-78
2023/01/07 05:05:55;;;;;;;2.47;1.10;;;9.50;99.90;;;;;;4992179;28;20035;-77
2023/01/07 05:08:20;;;;;;;1.30;0.75;;;9.50;99.90;;;;;;4991644;28;20084;-78
2023/01/07 05:10:49;;;;;;;2.80;0.93;;;9.40;99.90;;;;;;4991949;28;20030;-78
2023/01/07 05:13:21;;;;;;;2.45;0.93;;;9.40;99.90;;;;;;4990532;28;20038;-78
2023/01/07 05:15:47;;;;;;;0.85;0.70;;;9.40;99.90;;;;;;4998412;28;20034;-77
2023/01/07 05:18:13;;;;;;;3.08;1.50;;;9.40;99.90;;;;;;5001912;28;20506;-78
2023/01/07 05:20:39;;;;;;;1.58;0.98;;;9.40;99.90;;;;;;4991742;28;20038;-78
2023/01/07 05:23:05;;;;;;;1.60;0.45;;;9.50;99.90;;;;;;4991141;28;20055;-78
2023/01/07 05:25:33;;;;;;;1.55;0.85;;;9.40;99.90;;;;;;4991561;28;20027;-79
2023/01/07 05:27:59;;;;;;;2.17;1.05;;;9.40;99.90;;;;;;5006106;28;20112;-79
2023/01/07 05:30:25;;;;;;;1.30;0.65;;;9.40;99.90;;;;;;4991302;28;20038;-78
2023/01/07 05:32:51;;;;;;;1.45;0.75;;;9.40;99.90;;;;;;4991056;28;20113;-78
2023/01/07 05:35:17;;;;;;;2.22;1.10;;;9.40;99.90;;;;;;4991694;28;20605;-78
2023/01/07 05:37:42;;;;;;;1.23;0.85;;;9.40;99.90;;;;;;4990742;28;20113;-78
2023/01/07 05:40:09;;;;;;;8.63;0.80;;;9.40;99.90;;;;;;4991422;28;20478;-77
2023/01/07 05:42:35;;;;;;;2.55;1.27;;;9.40;99.90;;;;;;4991030;28;20169;-78
2023/01/07 05:45:01;;;;;;;2.65;1.00;;;9.40;99.90;;;;;;4991535;28;20501;-78
2023/01/07 05:47:26;;;;;;;1.08;0.75;;;9.40;99.90;;;;;;4990902;28;20499;-78
2023/01/07 05:49:52;;;;;;;1.70;1.10;;;9.40;99.90;;;;;;4991238;28;20042;-78
2023/01/07 05:52:18;;;;;;;1.83;0.80;;;9.40;99.90;;;;;;4990787;28;20030;-79
2023/01/07 05:54:43;;;;;;;1.27;0.93;;;9.30;99.90;;;;;;4991027;28;20522;-78
2023/01/07 05:57:10;;;;;;;1.48;0.60;;;9.30;99.90;;;;;;4990265;28;20044;-78
2023/01/07 05:59:35;;;;;;;5.40;0.57;;;9.30;99.90;;;;;;4990636;28;20041;-79
2023/01/07 06:02:01;;;;;;;0.60;0.60;;;9.40;99.90;;;;;;4987349;28;20419;-78
2023/01/07 06:04:27;;;;;;;4.18;1.60;;;9.40;99.90;;;;;;4988733;28;20026;-78
2023/01/07 06:06:53;;;;;;;3.10;1.20;;;9.40;99.90;;;;;;5005948;28;20363;-79
2023/01/07 06:09:19;;;;;;;2.40;0.60;;;9.40;99.90;;;;;;5005620;28;20042;-79
2023/01/07 06:11:44;;;;;;;2.08;1.00;;;9.40;99.90;;;;;;5006131;28;20049;-79
2023/01/07 06:14:10;;;;;;;1.95;0.90;;;9.40;99.90;;;;;;4990574;28;20040;-78
2023/01/07 06:16:36;;;;;;;1.38;0.77;;;9.40;99.90;;;;;;4990876;28;20030;-79
2023/01/07 06:19:02;;;;;;;1.30;0.63;;;9.40;99.90;;;;;;4990553;28;20455;-78
2023/01/07 06:21:28;;;;;;;2.05;0.70;;;9.40;99.90;;;;;;4990977;28;20099;-79
2023/01/07 06:23:55;;;;;;;0.80;0.60;;;9.40;99.90;;;;;;4990243;28;20035;-78
2023/01/07 06:26:20;;;;;;;1.42;0.90;;;9.40;99.90;;;;;;5005801;28;20022;-78
2023/01/07 06:28:46;;;;;;;1.40;0.70;;;9.40;99.90;;;;;;4989360;28;20073;-78
2023/01/07 06:31:12;;;;;;;1.17;0.90;;;9.40;99.90;;;;;;4990939;28;20042;-78
2023/01/07 06:33:39;;;;;;;0.70;0.40;;;9.40;99.90;;;;;;4989964;28;20129;-78
2023/01/07 06:36:06;;;;;;;1.60;0.80;;;9.30;99.90;;;;;;4990680;28;20042;-78
2023/01/07 06:38:32;;;;;;;5.10;1.05;;;9.30;99.90;;;;;;4990110;28;20042;-78
2023/01/07 06:40:58;;;;;;;0.65;0.57;;;9.30;99.90;;;;;;4990699;28;20402;-79
2023/01/07 06:43:24;;;;;;;1.15;0.57;;;9.30;99.90;;;;;;4989252;28;20029;-79
2023/01/07 06:45:50;;;;;;;1.50;0.98;;;9.30;99.90;;;;;;5005360;28;20556;-80
2023/01/07 06:48:16;;;;;;;1.25;0.40;;;9.30;99.90;;;;;;4990890;28;20042;-81
2023/01/07 06:50:43;;;;;;;0.98;0.55;;;9.30;99.90;;;;;;5005633;28;20034;-80
2023/01/07 06:53:09;;;;;;;2.13;0.52;;;9.30;99.90;;;;;;4990670;28;20037;-80
2023/01/07 06:55:35;;;;;;;1.25;0.80;;;9.30;99.90;;;;;;4990089;28;20038;-78
2023/01/07 06:58:00;;;;;;;0.38;0.30;;;9.30;99.90;;;;;;4990394;28;20387;-79
2023/01/07 07:00:26;;;;;;;1.40;0.68;;;9.20;99.90;;;;;;4989331;28;20105;-80
2023/01/07 07:02:52;;;;;;;1.20;0.65;;;9.30;99.90;;;;;;4989677;28;20054;-77
2023/01/07 07:05:18;;;;;;;0.32;0.30;;;9.20;99.90;;;;;;4989858;28;20057;-78
2023/01/07 07:07:43;;;;;;;0.73;0.43;;;9.20;99.90;;;;;;4991671;28;20437;-81
2023/01/07 07:10:10;;;;;;;1.25;0.65;;;9.20;99.90;;;;;;4993887;28;20037;-78
2023/01/07 07:12:37;;;;;;;0.50;0.50;;;9.20;99.90;;;;;;5009064;28;20100;-82
2023/01/07 07:15:05;;;;;;;3.83;1.23;;;9.30;99.90;;;;;;4993922;28;20044;-77
2023/01/07 07:17:31;;;;;;;0.90;0.43;;;9.30;99.90;;;;;;5008748;28;20481;-77
2023/01/07 07:19:57;;;;;;;2.90;1.42;;;9.30;99.90;;;;;;4993912;28;20031;-73
2023/01/07 07:22:23;;;;;;;1.02;0.65;;;9.30;99.90;;;;;;4993946;28;20022;-81
2023/01/07 07:24:48;;;;;;;0.85;0.50;;;9.30;99.90;;;;;;5040888;23;20045;-75
2023/01/07 07:27:15;;;;;;;1.35;0.73;;;9.30;99.90;;;;;;5012410;28;20080;-77
2023/01/07 07:29:40;;;;;;;0.57;0.50;;;9.30;99.90;;;;;;5032217;28;20072;-76
2023/01/07 07:32:07;;;;;;;0.93;0.68;;;9.30;99.90;;;;;;5033090;28;20065;-76
2023/01/07 07:34:33;;;;;;;1.55;0.60;;;9.30;99.90;;;;;;5011440;28;20045;-76
2023/01/07 07:36:59;;;;;;;1.33;0.93;;;9.30;99.90;;;;;;5020004;28;20068;-76
2023/01/07 07:39:25;;;;;;;1.73;0.52;;;9.30;99.90;;;;;;4996203;28;20088;-74
2023/01/07 07:41:52;;;;;;;0.90;0.65;;;9.30;99.90;;;;;;4993636;28;20026;-76
2023/01/07 07:44:17;;;;;;;1.27;0.60;;;9.30;99.90;;;;;;5009220;28;20495;-77
2023/01/07 07:46:43;;;;;;;0.65;0.52;;;9.40;99.90;;;;;;5009956;28;20114;-76
2023/01/07 07:49:10;;;;;;;1.20;0.65;;;9.30;99.90;;;;;;5011981;28;20406;-76
2023/01/07 07:51:36;;;;;;;1.98;0.77;;;9.40;99.90;;;;;;5012912;28;20044;-76
2023/01/07 07:54:02;;;;;;;3.53;0.90;;;9.40;99.90;;;;;;5012133;28;20030;-76
2023/01/07 07:56:28;;;;;;;3.05;1.52;;;9.40;99.90;;;;;;5012533;28;20061;-77
2023/01/07 07:58:54;;;;;;;3.80;1.25;;;9.40;99.90;;;;;;5015988;28;20076;-76
2023/01/07 08:01:20;;;;;;;1.33;0.85;;;9.50;99.90;;;;;;5012757;28;20030;-77
2023/01/07 08:03:45;;;;;;;0.98;0.52;;;9.50;99.90;;;;;;5007055;28;20036;-78
2023/01/07 08:06:12;;;;;;;1.15;0.65;;;9.50;99.90;;;;;;5012537;28;20029;-77
2023/01/07 08:08:38;;;;;;;0.82;0.77;;;9.50;99.90;;;;;;5022990;28;20204;-73
2023/01/07 08:11:04;;;;;;;0.90;0.40;;;9.50;99.90;;;;;;4998707;28;20021;-72
2023/01/07 08:13:30;;;;;;;0.47;0.32;;;9.50;99.90;;;;;;5012879;28;20045;-78
2023/01/07 08:15:56;;;;;;;0.98;0.70;;;9.60;99.90;;;;;;5020239;28;20038;-81
2023/01/07 08:18:22;;;;;;;0.50;0.30;;;9.60;99.90;;;;;;5010952;28;20084;-81
2023/01/07 08:20:49;;;;;;;1.10;0.80;;;9.60;99.90;;;;;;5018734;28;20038;-79
2023/01/07 08:23:15;;;;;;;1.15;0.70;;;9.70;99.90;;;;;;5003272;28;20041;-78
2023/01/07 08:25:41;;;;;;;1.88;0.90;;;9.70;99.90;;;;;;5018078;28;20030;-78
2023/01/07 08:28:09;;;;;;;1.10;0.40;;;9.60;99.90;;;;;;5010719;28;20124;-78
2023/01/07 08:30:35;;;;;;;1.45;0.80;;;9.70;99.90;;;;;;5019430;28;20036;-77
2023/01/07 08:33:04;;;;;;;0.85;0.45;;;9.70;99.90;;;;;;5009125;28;20104;-75
2023/01/07 08:35:30;;;;;;;5.15;1.42;;;9.60;99.90;;;;;;5019235;28;20034;-73
2023/01/07 08:38:05;;;;;;;0.50;0.45;;;9.60;99.90;;;;;;5010655;28;20033;-74
2023/01/07 08:40:31;;;;;;;0.90;0.60;;;9.70;99.90;;;;;;5018866;28;20405;-75
2023/01/07 08:43:03;;;;;;;1.13;0.50;;;9.70;99.90;;;;;;5010840;28;20509;-74
2023/01/07 08:45:30;;;;;;;0.77;0.30;;;9.70;99.90;;;;;;4983367;28;20046;-73
2023/01/07 08:47:56;;;;;;;1.10;0.50;;;9.70;99.90;;;;;;5003325;28;20084;-73
2023/01/07 08:50:25;;;;;;;2.42;0.82;;;9.70;99.90;;;;;;5002094;28;20033;-74
2023/01/07 08:52:50;;;;;;;2.58;1.15;;;9.80;99.90;;;;;;5011313;28;20034;-74
2023/01/07 08:55:17;;;;;;;1.63;1.00;;;9.70;99.90;;;;;;5002425;28;20037;-75
2023/01/07 08:57:42;;;;;;;1.85;0.90;;;9.80;99.90;;;;;;5009584;28;20069;-74
2023/01/07 09:00:09;;;;;;;0.60;0.60;;;9.80;99.90;;;;;;5010841;28;20065;-60
2023/01/07 09:02:35;;;;;;;1.35;0.63;;;9.90;99.90;;;;;;5010729;28;20030;-59
2023/01/07 09:05:00;;;;;;;0.77;0.55;;;10.00;99.90;;;;;;5008017;28;20118;-60
2023/01/07 09:07:26;;;;;;;0.70;0.30;;;10.00;99.90;;;;;;5002111;28;20041;-60
2023/01/07 09:09:52;;;;;;;0.30;0.30;;;10.10;99.90;;;;;;5011530;28;20034;-75
2023/01/07 09:12:17;;;;;;;1.00;0.50;;;10.10;99.90;;;;;;5010365;28;20030;-75
2023/01/07 09:14:44;;;;;;;0.43;0.30;;;10.10;99.90;;;;;;5008089;28;20025;-75
2023/01/07 09:17:10;;;;;;;2.83;1.27;;;10.10;99.90;;;;;;5011116;28;20556;-76
2023/01/07 09:19:36;;;;;;;1.52;0.47;;;10.10;99.90;;;;;;5011275;28;20116;-75
2023/01/07 09:22:01;;;;;;;1.45;0.77;;;10.10;99.90;;;;;;5010756;28;20041;-75
2023/01/07 09:24:27;;;;;;;0.68;0.45;;;10.10;99.90;;;;;;5010785;28;20110;-75
2023/01/07 09:26:53;;;;;;;0.82;0.40;;;10.20;99.90;;;;;;5009949;28;20033;-75
2023/01/07 09:29:19;;;;;;;1.02;0.50;;;10.20;99.90;;;;;;5026330;28;20046;-73
2023/01/07 09:31:44;;;;;;;0.77;0.43;;;10.20;99.90;;;;;;4998601;28;20045;-73
2023/01/07 09:34:10;;;;;;;1.95;0.50;;;10.30;99.90;;;;;;5010224;28;20026;-73
2023/01/07 09:36:36;;;;;;;0.75;0.57;;;10.30;99.90;;;;;;5009769;28;20393;-74
2023/01/07 09:39:02;;;;;;;0.70;0.50;;;10.30;99.90;;;;;;5010933;28;20026;-71
2023/01/07 09:41:45;;;;;;;0.63;0.28;;;10.40;99.90;;;;;;5021875;28;20057;-78
2023/01/07 09:44:29;;;;;;;0.52;0.40;;;10.40;99.90;;;;;;5010905;28;20137;-79
2023/01/07 09:46:57;;;;;;;0.35;0.25;;;10.50;99.90;;;;;;5009589;28;20616;-73
2023/01/07 09:49:28;;;;;;;1.63;0.43;;;10.50;99.90;;;;;;5012906;28;20105;-76
2023/01/07 09:52:25;;;;;;;0.30;0.20;;;10.50;99.90;;;;;;4996210;28;20029;-77
2023/01/07 09:55:01;;;;;;;0.20;0.20;;;10.60;99.90;;;;;;5016586;28;20567;-76
2023/01/07 09:57:27;;;;;;;3.40;0.63;;;10.60;99.90;;;;;;5017810;28;20128;-78
2023/01/07 09:59:53;;;;;;;1.13;0.38;;;10.70;99.90;;;;;;4993404;28;20105;-76
2023/01/07 10:02:44;;;;;;;0.88;0.30;;;10.60;99.90;;;;;;5008930;28;20045;-75
2023/01/07 10:05:38;;;;;;;0.52;0.35;;;10.60;99.90;;;;;;5008552;28;20038;-75
2023/01/07 10:08:28;;;;;;;0.77;0.50;;;10.70;99.90;;;;;;5010510;28;20045;-75
2023/01/07 10:11:18;;;;;;;0.47;0.20;;;10.80;99.90;;;;;;5007568;28;20045;-75
2023/01/07 10:14:11;;;;;;;0.95;0.22;;;10.80;99.90;;;;;;5010379;28;20047;-75
2023/01/07 10:16:51;;;;;;;0.65;0.28;;;10.80;99.90;;;;;;5010523;28;20109;-75
2023/01/07 10:19:35;;;;;;;0.65;0.50;;;10.80;99.90;;;;;;5007865;28;20494;-75
2023/01/07 10:22:21;;;;;;;1.40;0.55;;;10.90;99.90;;;;;;5011935;28;20039;-76
2023/01/07 10:24:56;;;;;;;0.70;0.52;;;11.00;99.90;;;;;;5015681;28;20105;-76
2023/01/07 10:27:45;;;;;;;0.63;0.25;;;10.90;99.90;;;;;;5016969;28;20405;-75
2023/01/07 10:30:19;;;;;;;1.85;0.77;;;10.90;99.90;;;;;;4995788;28;20409;-75
2023/01/07 10:32:51;;;;;;;0.35;0.28;;;10.90;99.90;;;;;;4996034;28;20509;-76
2023/01/07 10:35:20;;;;;;;0.77;0.30;;;10.90;99.90;;;;;;4982287;28;20040;-74
2023/01/07 10:37:46;;;;;;;0.60;0.30;;;10.90;99.90;;;;;;4993766;28;20041;-76
2023/01/07 10:40:30;;;;;;;0.20;0.10;;;11.00;99.90;;;;;;4964969;28;20030;-75
2023/01/07 10:43:33;;;;;;;0.35;0.28;;;11.00;99.90;;;;;;4979685;28;20471;-75
2023/01/07 10:46:23;;;;;;;0.65;0.30;;;10.90;99.90;;;;;;5002340;28;20026;-75
2023/01/07 10:49:20;;;;;;;0.55;0.52;;;11.00;99.90;;;;;;5002112;28;20030;-74
2023/01/07 10:52:16;;;;;;;1.05;0.45;;;11.00;99.90;;;;;;5019506;28;20478;-74
2023/01/07 10:55:23;;;;;;;1.23;0.43;;;11.00;99.90;;;;;;4994193;28;20030;-77
2023/01/07 10:57:49;;;;;;;0.60;0.40;;;11.00;99.90;;;;;;5009916;28;20076;-73
2023/01/07 11:00:17;;;;;;;1.35;0.57;;;11.00;99.90;;;;;;5011481;28;20076;-75
2023/01/07 11:02:56;;;;;;;0.30;0.30;;;11.00;99.90;;;;;;5004321;28;20025;-70
2023/01/07 11:05:37;;;;;;;0.77;0.50;;;11.00;99.90;;;;;;4996536;28;20037;-77
2023/01/07 11:08:11;;;;;;;2.07;0.60;;;11.00;99.90;;;;;;5020638;28;20034;-75
2023/01/07 11:10:37;;;;;;;1.65;0.73;;;11.00;99.90;;;;;;5025532;28;20611;-76
2023/01/07 11:13:14;;;;;;;0.98;0.47;;;11.00;99.90;;;;;;5004246;28;20045;-76
2023/01/07 11:15:51;;;;;;;5.18;1.15;;;11.00;99.90;;;;;;5013264;28;20034;-74
2023/01/07 11:18:43;;;;;;;1.05;0.40;;;11.00;99.90;;;;;;5012414;28;20030;-77
2023/01/07 11:21:09;;;;;;;0.52;0.35;;;11.00;99.90;;;;;;5002227;28;20057;-76
2023/01/07 11:23:37;;;;;;;0.38;0.28;;;11.00;99.90;;;;;;4978620;28;20482;-76
2023/01/07 11:26:33;;;;;;;2.47;0.40;;;11.00;99.90;;;;;;4977632;28;20065;-77
2023/01/07 11:29:24;;;;;;;0.85;0.60;;;11.10;99.90;;;;;;4985766;28;20045;-75
2023/01/07 11:31:59;;;;;;;0.82;0.22;;;11.10;99.90;;;;;;4994746;28;20040;-75
2023/01/07 11:35:01;;;;;;;0.40;0.32;;;11.10;99.90;;;;;;5002669;28;20040;-75
2023/01/07 11:37:40;;;;;;;0.90;0.55;;;11.10;99.90;;;;;;4994767;28;20038;-74
2023/01/07 11:40:12;;;;;;;0.80;0.50;;;11.10;99.90;;;;;;5010113;28;20026;-75
2023/01/07 11:43:32;;;;;;;0.65;0.52;;;11.20;99.90;;;;;;5012939;28;20034;-73
2023/01/07 11:46:10;;;;;;;0.30;0.20;;;11.20;99.90;;;;;;4980862;28;20042;-81
2023/01/07 11:48:41;;;;;;;0.80;0.45;;;11.20;99.90;;;;;;5012890;28;20036;-73
2023/01/07 11:51:09;;;;;;;1.33;0.55;;;11.20;99.90;;;;;;5020979;28;20119;-72
2023/01/07 11:53:42;;;;;;;1.13;0.38;;;11.30;99.90;;;;;;5016081;28;20057;-70
2023/01/07 11:56:18;;;;;;;0.75;0.47;;;11.30;99.90;;;;;;5001386;28;20080;-73
2023/01/07 11:58:48;;;;;;;1.25;0.60;;;11.30;99.90;;;;;;5012664;28;20041;-74
2023/01/07 12:01:22;;;;;;;1.27;0.90;;;11.30;99.90;;;;;;5010021;28;20060;-74
2023/01/07 12:03:51;;;;;;;0.52;0.40;;;11.50;99.90;;;;;;5020405;28;20536;-72
2023/01/07 12:06:33;;;;;;;0.47;0.30;;;11.60;99.90;;;;;;5011372;28;20069;-72
2023/01/07 12:09:30;;;;;;;1.00;0.30;;;11.60;99.90;;;;;;5012683;28;20045;-73
2023/01/07 12:12:33;;;;;;;0.20;0.20;;;11.60;99.90;;;;;;5007675;28;20050;-73
2023/01/07 12:15:03;;;;;;;1.15;0.60;;;11.50;99.90;;;;;;5009043;28;20383;-75
2023/01/07 12:17:32;;;;;;;0.22;0.22;;;11.60;99.90;;;;;;5019062;28;20044;-77
2023/01/07 12:21:05;;;;;;;0.32;0.30;;;11.60;99.90;;;;;;5020215;28;20030;-75
2023/01/07 12:23:55;;;;;;;0.45;0.20;;;11.50;99.90;;;;;;4958967;28;20031;-74
2023/01/07 12:26:31;;;;;;;1.05;0.57;;;11.50;99.90;;;;;;5011114;28;20036;-79
2023/01/07 12:30:00;;;;;;;1.10;0.40;;;11.50;99.90;;;;;;5024244;28;20037;-74
2023/01/07 12:32:58;;;;;;;0.08;0.05;;;11.60;99.90;;;;;;4956916;28;20069;-66
2023/01/07 12:35:35;;;;;;;1.33;0.57;;;11.60;99.90;;;;;;4997358;28;20041;-81
2023/01/07 12:38:41;;;;;;;2.08;0.35;;;11.60;99.90;;;;;;5011772;28;20049;-80
2023/01/07 12:41:23;;;;;;;0.73;0.30;;;11.70;99.90;;;;;;5012216;28;20026;-78
2023/01/07 12:44:06;;;;;;;0.55;0.43;;;11.70;99.90;;;;;;5001052;28;20522;-78
2023/01/07 12:47:15;;;;;;;0.90;0.17;;;11.70;99.90;;;;;;5007113;28;20482;-79
2023/01/07 12:50:02;;;;;;;2.95;0.60;;;11.80;99.90;;;;;;5014273;28;20034;-77
2023/01/07 12:52:50;;;;;;;1.13;0.60;;;11.90;99.90;;;;;;5003441;28;20080;-83
2023/01/07 12:55:27;;;;;;;0.77;0.32;;;12.00;99.90;;;;;;4986984;28;20041;-84
2023/01/07 12:58:13;;;;;;;1.52;0.40;;;12.00;99.90;;;;;;4999398;28;20076;-83
2023/01/07 13:00:59;;;;;;;2.08;0.73;;;12.00;99.90;;;;;;5018427;28;20030;-80
2023/01/07 13:03:37;;;;;;;1.38;0.43;;;12.20;99.90;;;;;;4992846;28;20038;-73
2023/01/07 13:06:17;;;;;;;1.02;0.60;;;12.40;99.90;;;;;;5002984;28;20389;-80
2023/01/07 13:09:02;;;;;;;2.25;0.90;;;12.50;99.90;;;;;;5025499;28;20076;-80
2023/01/07 13:14:50;;;;;;;4.38;0.35;;;12.60;99.90;;;;;;5010871;28;20366;-80
2023/01/07 13:17:26;;;;;;;2.67;0.63;;;12.80;99.90;;;;;;5010034;28;20394;-78
2023/01/07 13:19:52;;;;;;;2.03;0.70;;;13.00;99.90;;;;;;5011069;28;20053;-80
2023/01/07 13:25:51;;;;;;;3.28;0.50;;;12.80;99.90;;;;;;5025527;28;20057;-77
2023/01/07 13:28:28;;;;;;;0.47;0.22;;;13.60;99.90;;;;;;5013833;28;20160;-77
2023/01/07 13:31:24;;;;;;;0.95;0.40;;;14.00;99.90;;;;;;5030870;28;20029;-77
2023/01/07 13:34:19;;;;;;;0.50;0.38;;;14.50;99.90;;;;;;5009264;28;20042;-77